createdAt,value
2022-09-03T00:00:56.504Z,1020.61
2022-09-03T00:01:56.648Z,1020.54
2022-09-03T00:02:56.806Z,1020.55
2022-09-03T00:03:57.016Z,1020.54
2022-09-03T00:04:57.161Z,1020.56
2022-09-03T00:05:57.317Z,1020.57
2022-09-03T00:06:57.583Z,1020.59
2022-09-03T00:07:57.695Z,1020.58
2022-09-03T00:08:57.942Z,1020.52
2022-09-03T00:09:58.083Z,1020.56
2022-09-03T00:10:58.241Z,1020.55
2022-09-03T00:11:58.503Z,1020.56
2022-09-03T00:12:58.605Z,1020.56
2022-09-03T00:13:58.802Z,1020.55
2022-09-03T00:14:59.010Z,1020.57
2022-09-03T00:15:59.161Z,1020.54
2022-09-03T00:16:59.272Z,1020.52
2022-09-03T00:17:59.552Z,1020.52
2022-09-03T00:18:59.731Z,1020.52
2022-09-03T00:19:59.817Z,1020.51
2022-09-03T00:21:00.024Z,1020.51
2022-09-03T00:22:00.161Z,1020.52
2022-09-03T00:23:00.302Z,1020.49
2022-09-03T00:24:00.531Z,1020.53
2022-09-03T00:25:00.726Z,1020.55
2022-09-03T00:26:00.890Z,1020.56
2022-09-03T00:27:01.022Z,1020.58
2022-09-03T00:28:01.274Z,1020.57
2022-09-03T00:29:01.422Z,1020.56
2022-09-03T00:30:01.572Z,1020.56
2022-09-03T00:31:01.909Z,1020.56
2022-09-03T00:32:01.922Z,1020.61
2022-09-03T00:33:02.082Z,1020.62
2022-09-03T00:34:02.397Z,1020.60
2022-09-03T00:35:02.484Z,1020.59
2022-09-03T00:36:02.623Z,1020.57
2022-09-03T00:37:02.883Z,1020.56
2022-09-03T00:38:02.982Z,1020.56
2022-09-03T00:39:03.152Z,1020.57
2022-09-03T00:40:03.489Z,1020.55
2022-09-03T00:41:03.477Z,1020.54
2022-09-03T00:42:03.642Z,1020.56
2022-09-03T00:43:03.902Z,1020.58
2022-09-03T00:44:04.041Z,1020.60
2022-09-03T00:45:04.202Z,1020.61
2022-09-03T00:46:04.438Z,1020.59
2022-09-03T00:47:04.595Z,1020.56
2022-09-03T00:48:04.733Z,1020.64
2022-09-03T00:49:04.941Z,1020.59
2022-09-03T00:50:05.092Z,1020.57
2022-09-03T00:51:05.273Z,1020.54
2022-09-03T00:52:05.477Z,1020.56
2022-09-03T00:53:05.582Z,1020.51
2022-09-03T00:54:05.802Z,1020.53
2022-09-03T00:55:06.011Z,1020.48
2022-09-03T00:56:06.122Z,1020.49
2022-09-03T00:57:06.272Z,1020.42
2022-09-03T00:58:06.472Z,1020.40
2022-09-03T00:59:06.662Z,1020.44
2022-09-03T01:00:06.887Z,1020.40
2022-09-03T01:01:07.012Z,1020.43
2022-09-03T01:02:07.330Z,1020.41
2022-09-03T01:03:07.397Z,1020.41
2022-09-03T01:04:07.601Z,1020.41
2022-09-03T01:05:07.824Z,1020.43
2022-09-03T01:06:07.934Z,1020.43
2022-09-03T01:07:08.114Z,1020.44
2022-09-03T01:08:08.343Z,1020.42
2022-09-03T01:09:08.463Z,1020.41
2022-09-03T01:10:08.612Z,1020.40
2022-09-03T01:11:08.897Z,1020.42
2022-09-03T01:12:09.006Z,1020.37
2022-09-03T01:13:09.162Z,1020.41
2022-09-03T01:14:09.465Z,1020.39
2022-09-03T01:15:09.561Z,1020.44
2022-09-03T01:16:09.810Z,1020.38
2022-09-03T01:17:09.944Z,1020.44
2022-09-03T01:18:10.106Z,1020.35
2022-09-03T01:19:10.273Z,1020.33
2022-09-03T01:20:10.412Z,1020.38
2022-09-03T01:21:10.583Z,1020.38
2022-09-03T01:22:10.756Z,1020.36
2022-09-03T01:23:10.902Z,1020.42
2022-09-03T01:24:11.085Z,1020.37
2022-09-03T01:25:11.242Z,1020.36
2022-09-03T01:26:11.457Z,1020.34
2022-09-03T01:27:11.613Z,1020.40
2022-09-03T01:28:11.764Z,1020.37
2022-09-03T01:29:11.965Z,1020.40
2022-09-03T01:30:12.124Z,1020.38
2022-09-03T01:31:12.399Z,1020.37
2022-09-03T01:32:12.499Z,1020.36
2022-09-03T01:33:12.654Z,1020.37
2022-09-03T01:34:12.905Z,1020.31
2022-09-03T01:35:13.011Z,1020.34
2022-09-03T01:36:13.152Z,1020.32
2022-09-03T01:37:13.353Z,1020.35
2022-09-03T01:38:13.557Z,1020.36
2022-09-03T01:39:13.684Z,1020.38
2022-09-03T01:40:13.842Z,1020.39
2022-09-03T01:41:14.114Z,1020.40
2022-09-03T01:42:14.213Z,1020.39
2022-09-03T01:43:14.418Z,1020.40
2022-09-03T01:44:14.675Z,1020.39
2022-09-03T01:45:14.748Z,1020.40
2022-09-03T01:46:15.307Z,1020.37
2022-09-03T01:47:15.178Z,1020.38
2022-09-03T01:48:15.315Z,1020.42
2022-09-03T01:49:15.461Z,1020.41
2022-09-03T01:50:15.623Z,1020.37
2022-09-03T01:51:15.802Z,1020.36
2022-09-03T01:52:15.955Z,1020.36
2022-09-03T01:53:16.170Z,1020.39
2022-09-03T01:54:20.711Z,1020.37
2022-09-03T01:55:17.508Z,1020.39
2022-09-03T01:56:16.683Z,1020.37
2022-09-03T01:57:34.489Z,1020.38
2022-09-03T01:58:18.109Z,1020.41
2022-09-03T01:59:17.233Z,1020.37
2022-09-03T02:00:17.432Z,1020.38
2022-09-03T02:01:18.184Z,1020.39
2022-09-03T02:02:17.894Z,1020.36
2022-09-03T02:03:17.963Z,1020.36
2022-09-03T02:04:18.168Z,1020.35
2022-09-03T02:05:18.333Z,1020.35
2022-09-03T02:06:18.492Z,1020.31
2022-09-03T02:07:18.661Z,1020.33
2022-09-03T02:08:18.912Z,1020.34
2022-09-03T02:09:19.023Z,1020.31
2022-09-03T02:10:19.183Z,1020.31
2022-09-03T02:11:19.346Z,1020.35
2022-09-03T02:12:19.512Z,1020.30
2022-09-03T02:13:19.781Z,1020.32
2022-09-03T02:14:19.871Z,1020.34
2022-09-03T02:15:20.020Z,1020.31
2022-09-03T02:16:20.355Z,1020.30
2022-09-03T02:17:20.365Z,1020.30
2022-09-03T02:18:20.596Z,1020.27
2022-09-03T02:19:20.755Z,1020.31
2022-09-03T02:20:20.863Z,1020.31
2022-09-03T02:21:21.054Z,1020.31
2022-09-03T02:22:21.270Z,1020.32
2022-09-03T02:23:24.773Z,1020.34
2022-09-03T02:24:22.553Z,1020.32
2022-09-03T02:25:21.814Z,1020.32
2022-09-03T02:26:21.934Z,1020.37
2022-09-03T02:27:22.113Z,1020.30
2022-09-03T02:28:22.365Z,1020.36
2022-09-03T02:29:22.434Z,1020.34
2022-09-03T02:30:22.593Z,1020.36
2022-09-03T02:31:22.831Z,1020.38
2022-09-03T02:32:22.977Z,1020.37
2022-09-03T02:33:23.156Z,1020.39
2022-09-03T02:34:23.343Z,1020.40
2022-09-03T02:35:23.502Z,1020.43
2022-09-03T02:36:23.621Z,1020.38
2022-09-03T02:37:23.812Z,1020.39
2022-09-03T02:38:24.131Z,1020.38
2022-09-03T02:39:24.201Z,1020.41
2022-09-03T02:40:24.333Z,1020.36
2022-09-03T02:41:24.564Z,1020.39
2022-09-03T02:42:24.681Z,1020.44
2022-09-03T02:43:26.083Z,1020.37
2022-09-03T02:44:25.044Z,1020.39
2022-09-03T02:45:25.223Z,1020.34
2022-09-03T02:46:25.471Z,1020.40
2022-09-03T02:47:25.647Z,1020.32
2022-09-03T02:48:25.908Z,1020.34
2022-09-03T02:49:26.007Z,1020.37
2022-09-03T02:50:26.104Z,1020.39
2022-09-03T02:51:26.263Z,1020.37
2022-09-03T02:52:26.444Z,1020.40
2022-09-03T02:53:26.645Z,1020.44
2022-09-03T02:54:26.802Z,1020.45
2022-09-03T02:55:26.993Z,1020.42
2022-09-03T02:56:27.185Z,1020.39
2022-09-03T02:57:27.832Z,1020.41
2022-09-03T02:58:27.534Z,1020.40
2022-09-03T02:59:27.782Z,1020.39
2022-09-03T03:00:27.848Z,1020.34
2022-09-03T03:01:28.065Z,1020.35
2022-09-03T03:02:28.307Z,1020.38
2022-09-03T03:03:28.395Z,1020.38
2022-09-03T03:04:28.551Z,1020.35
2022-09-03T03:05:28.837Z,1020.37
2022-09-03T03:06:28.939Z,1020.42
2022-09-03T03:07:29.093Z,1020.39
2022-09-03T03:08:29.319Z,1020.40
2022-09-03T03:09:29.458Z,1020.40
2022-09-03T03:10:29.608Z,1020.40
2022-09-03T03:11:29.833Z,1020.39
2022-09-03T03:12:29.996Z,1020.41
2022-09-03T03:13:30.135Z,1020.43
2022-09-03T03:14:30.303Z,1020.40
2022-09-03T03:15:30.542Z,1020.43
2022-09-03T03:16:30.680Z,1020.43
2022-09-03T03:17:30.843Z,1020.43
2022-09-03T03:18:31.014Z,1020.43
2022-09-03T03:19:31.173Z,1020.46
2022-09-03T03:20:31.357Z,1020.48
2022-09-03T03:21:31.631Z,1020.48
2022-09-03T03:22:31.735Z,1020.44
2022-09-03T03:23:31.934Z,1020.47
2022-09-03T03:24:32.162Z,1020.48
2022-09-03T03:25:32.298Z,1020.44
2022-09-03T03:26:32.442Z,1020.49
2022-09-03T03:27:32.653Z,1020.48
2022-09-03T03:28:32.873Z,1020.50
2022-09-03T03:29:32.994Z,1020.53
2022-09-03T03:30:33.225Z,1020.54
2022-09-03T03:31:33.415Z,1020.52
2022-09-03T03:32:33.523Z,1020.52
2022-09-03T03:33:33.731Z,1020.53
2022-09-03T03:34:33.950Z,1020.55
2022-09-03T03:35:34.074Z,1020.52
2022-09-03T03:36:34.239Z,1020.54
2022-09-03T03:37:34.491Z,1020.53
2022-09-03T03:38:34.566Z,1020.58
2022-09-03T03:39:34.741Z,1020.57
2022-09-03T03:40:34.971Z,1020.55
2022-09-03T03:41:35.080Z,1020.55
2022-09-03T03:42:35.252Z,1020.58
2022-09-03T03:43:35.550Z,1020.57
2022-09-03T03:44:35.650Z,1020.58
2022-09-03T03:45:35.893Z,1020.53
2022-09-03T03:46:36.012Z,1020.54
2022-09-03T03:47:36.176Z,1020.53
2022-09-03T03:48:36.347Z,1020.55
2022-09-03T03:49:36.489Z,1020.57
2022-09-03T03:50:36.711Z,1020.59
2022-09-03T03:51:36.822Z,1020.57
2022-09-03T03:52:37.009Z,1020.53
2022-09-03T03:53:37.252Z,1020.52
2022-09-03T03:54:37.323Z,1020.51
2022-09-03T03:55:37.514Z,1020.53
2022-09-03T03:56:37.742Z,1020.50
2022-09-03T03:57:37.855Z,1020.50
2022-09-03T03:58:38.044Z,1020.55
2022-09-03T03:59:38.282Z,1020.53
2022-09-03T04:00:38.396Z,1020.50
2022-09-03T04:01:38.590Z,1020.52
2022-09-03T04:02:39.349Z,1020.50
2022-09-03T04:03:38.944Z,1020.54
2022-09-03T04:04:39.085Z,1020.55
2022-09-03T04:05:46.160Z,1020.54
2022-09-03T04:06:40.494Z,1020.56
2022-09-03T04:07:39.622Z,1020.57
2022-09-03T04:08:39.762Z,1020.56
2022-09-03T04:09:40.034Z,1020.54
2022-09-03T04:10:40.113Z,1020.57
2022-09-03T04:11:40.292Z,1020.53
2022-09-03T04:12:40.582Z,1020.54
2022-09-03T04:13:40.643Z,1020.57
2022-09-03T04:14:40.821Z,1020.55
2022-09-03T04:15:41.082Z,1020.57
2022-09-03T04:16:41.217Z,1020.59
2022-09-03T04:17:41.374Z,1020.57
2022-09-03T04:18:41.621Z,1020.58
2022-09-03T04:19:41.747Z,1020.57
2022-09-03T04:20:41.912Z,1020.60
2022-09-03T04:21:42.159Z,1020.58
2022-09-03T04:22:42.346Z,1020.56
2022-09-03T04:23:42.514Z,1020.53
2022-09-03T04:24:42.653Z,1020.50
2022-09-03T04:25:42.885Z,1020.51
2022-09-03T04:26:42.993Z,1020.52
2022-09-03T04:27:43.192Z,1020.49
2022-09-03T04:28:43.436Z,1020.49
2022-09-03T04:29:43.531Z,1020.50
2022-09-03T04:30:43.790Z,1020.49
2022-09-03T04:31:43.872Z,1020.50
2022-09-03T04:32:44.053Z,1020.43
2022-09-03T04:33:44.262Z,1020.42
2022-09-03T04:34:44.413Z,1020.42
2022-09-03T04:35:44.664Z,1020.46
2022-09-03T04:36:44.752Z,1020.48
2022-09-03T04:37:44.974Z,1020.47
2022-09-03T04:38:45.192Z,1020.45
2022-09-03T04:39:45.329Z,1020.47
2022-09-03T04:40:45.478Z,1020.47
2022-09-03T04:41:45.702Z,1020.48
2022-09-03T04:42:45.815Z,1020.45
2022-09-03T04:43:45.997Z,1020.45
2022-09-03T04:44:47.210Z,1020.44
2022-09-03T04:45:46.417Z,1020.45
2022-09-03T04:46:46.504Z,1020.46
2022-09-03T04:47:46.725Z,1020.40
2022-09-03T04:48:46.927Z,1020.43
2022-09-03T04:49:47.058Z,1020.46
2022-09-03T04:50:47.234Z,1020.42
2022-09-03T04:51:47.480Z,1020.48
2022-09-03T04:52:47.612Z,1020.46
2022-09-03T04:53:47.792Z,1020.46
2022-09-03T04:54:48.068Z,1020.45
2022-09-03T04:55:48.169Z,1020.46
2022-09-03T04:56:48.336Z,1020.45
2022-09-03T04:57:48.609Z,1020.42
2022-09-03T04:58:49.321Z,1020.44
2022-09-03T04:59:48.850Z,1020.45
2022-09-03T05:00:49.105Z,1020.45
2022-09-03T05:01:49.237Z,1020.45
2022-09-03T05:02:49.411Z,1020.49
2022-09-03T05:03:49.564Z,1020.45
2022-09-03T05:04:49.780Z,1020.48
2022-09-03T05:05:52.501Z,1020.47
2022-09-03T05:06:50.082Z,1020.44
2022-09-03T05:07:50.330Z,1020.41
2022-09-03T05:08:50.427Z,1020.43
2022-09-03T05:09:50.735Z,1020.49
2022-09-03T05:10:50.764Z,1020.52
2022-09-03T05:11:50.936Z,1020.49
2022-09-03T05:12:51.221Z,1020.50
2022-09-03T05:13:51.302Z,1020.47
2022-09-03T05:14:51.489Z,1020.56
2022-09-03T05:15:51.696Z,1020.52
2022-09-03T05:16:52.669Z,1020.56
2022-09-03T05:17:52.003Z,1020.57
2022-09-03T05:18:52.193Z,1020.56
2022-09-03T05:19:52.353Z,1020.58
2022-09-03T05:20:52.471Z,1020.59
2022-09-03T05:21:52.653Z,1020.55
2022-09-03T05:22:52.874Z,1020.54
2022-09-03T05:23:53.017Z,1020.55
2022-09-03T05:24:53.172Z,1020.59
2022-09-03T05:25:53.389Z,1020.54
2022-09-03T05:26:53.504Z,1020.55
2022-09-03T05:27:53.747Z,1020.55
2022-09-03T05:28:53.842Z,1020.57
2022-09-03T05:29:54.047Z,1020.54
2022-09-03T05:30:54.252Z,1020.48
2022-09-03T05:31:54.393Z,1020.48
2022-09-03T05:32:54.619Z,1020.46
2022-09-03T05:33:54.705Z,1020.51
2022-09-03T05:34:54.891Z,1020.46
2022-09-03T05:35:55.062Z,1020.49
2022-09-03T05:36:55.243Z,1020.44
2022-09-03T05:37:55.521Z,1020.47
2022-09-03T05:38:55.619Z,1020.42
2022-09-03T05:39:55.854Z,1020.50
2022-09-03T05:40:56.043Z,1020.44
2022-09-03T05:41:56.135Z,1020.44
2022-09-03T05:42:56.325Z,1020.49
2022-09-03T05:43:56.545Z,1020.45
2022-09-03T05:44:56.646Z,1020.50
2022-09-03T05:45:56.884Z,1020.51
2022-09-03T05:46:57.070Z,1020.52
2022-09-03T05:47:57.185Z,1020.52
2022-09-03T05:48:57.367Z,1020.56
2022-09-03T05:49:57.569Z,1020.55
2022-09-03T05:50:57.705Z,1020.57
2022-09-03T05:51:57.896Z,1020.58
2022-09-03T05:52:58.122Z,1020.59
2022-09-03T05:53:58.265Z,1020.59
2022-09-03T05:54:58.457Z,1020.59
2022-09-03T05:55:58.634Z,1020.61
2022-09-03T05:56:58.849Z,1020.55
2022-09-03T05:57:59.067Z,1020.55
2022-09-03T05:58:59.193Z,1020.57
2022-09-03T05:59:59.383Z,1020.57
2022-09-03T06:00:59.634Z,1020.51
2022-09-03T06:02:00.403Z,1020.54
2022-09-03T06:03:00.020Z,1020.57
2022-09-03T06:04:00.107Z,1020.57
2022-09-03T06:05:00.283Z,1020.53
2022-09-03T06:06:00.531Z,1020.55
2022-09-03T06:07:00.633Z,1020.53
2022-09-03T06:08:00.824Z,1020.54
2022-09-03T06:09:01.073Z,1020.51
2022-09-03T06:10:01.194Z,1020.52
2022-09-03T06:11:01.436Z,1020.51
2022-09-03T06:12:03.998Z,1020.54
2022-09-03T06:13:01.753Z,1020.55
2022-09-03T06:14:01.960Z,1020.52
2022-09-03T06:15:02.094Z,1020.58
2022-09-03T06:16:02.318Z,1020.53
2022-09-03T06:17:02.516Z,1020.54
2022-09-03T06:18:02.657Z,1020.58
2022-09-03T06:19:02.901Z,1020.56
2022-09-03T06:20:03.037Z,1020.50
2022-09-03T06:21:03.224Z,1020.50
2022-09-03T06:22:03.368Z,1020.51
2022-09-03T06:23:03.574Z,1020.51
2022-09-03T06:24:03.771Z,1020.51
2022-09-03T06:25:03.913Z,1020.54
2022-09-03T06:26:05.450Z,1020.52
2022-09-03T06:27:04.224Z,1020.56
2022-09-03T06:28:04.469Z,1020.59
2022-09-03T06:29:04.601Z,1020.58
2022-09-03T06:30:04.785Z,1020.53
2022-09-03T06:31:05.034Z,1020.56
2022-09-03T06:32:05.246Z,1020.57
2022-09-03T06:33:05.336Z,1020.57
2022-09-03T06:34:05.497Z,1020.58
2022-09-03T06:35:05.636Z,1020.54
2022-09-03T06:36:08.819Z,1020.58
2022-09-03T06:37:06.059Z,1020.58
2022-09-03T06:38:06.193Z,1020.60
2022-09-03T06:39:06.379Z,1020.59
2022-09-03T06:40:06.649Z,1020.63
2022-09-03T06:41:06.706Z,1020.61
2022-09-03T06:42:06.953Z,1020.62
2022-09-03T06:43:07.071Z,1020.61
2022-09-03T06:44:07.206Z,1020.64
2022-09-03T06:45:07.416Z,1020.66
2022-09-03T06:46:07.687Z,1020.65
2022-09-03T06:47:07.717Z,1020.61
2022-09-03T06:48:07.913Z,1020.63
2022-09-03T06:49:08.149Z,1020.61
2022-09-03T06:50:08.265Z,1020.63
2022-09-03T06:51:08.445Z,1020.59
2022-09-03T06:52:08.683Z,1020.62
2022-09-03T06:53:08.827Z,1020.61
2022-09-03T06:54:08.987Z,1020.64
2022-09-03T06:55:09.245Z,1020.63
2022-09-03T06:56:09.336Z,1020.62
2022-09-03T06:57:09.517Z,1020.61
2022-09-03T06:58:09.768Z,1020.53
2022-09-03T06:59:09.882Z,1020.54
2022-09-03T07:00:10.027Z,1020.52
2022-09-03T07:01:10.409Z,1020.52
2022-09-03T07:02:10.495Z,1020.54
2022-09-03T07:03:10.558Z,1020.53
2022-09-03T07:04:10.704Z,1020.47
2022-09-03T07:05:10.949Z,1020.55
2022-09-03T07:06:11.075Z,1020.50
2022-09-03T07:07:11.273Z,1020.52
2022-09-03T07:08:11.427Z,1020.50
2022-09-03T07:09:11.588Z,1020.52
2022-09-03T07:10:11.738Z,1020.54
2022-09-03T07:11:11.911Z,1020.53
2022-09-03T07:12:12.073Z,1020.56
2022-09-03T07:13:12.285Z,1020.58
2022-09-03T07:14:12.548Z,1020.59
2022-09-03T07:15:12.608Z,1020.59
2022-09-03T07:16:12.874Z,1020.62
2022-09-03T07:17:12.958Z,1020.63
2022-09-03T07:18:13.148Z,1020.66
2022-09-03T07:19:13.410Z,1020.64
2022-09-03T07:20:13.482Z,1020.62
2022-09-03T07:21:13.658Z,1020.64
2022-09-03T07:22:13.900Z,1020.64
2022-09-03T07:23:13.982Z,1020.65
2022-09-03T07:24:14.137Z,1020.69
2022-09-03T07:25:14.309Z,1020.71
2022-09-03T07:26:14.460Z,1020.67
2022-09-03T07:27:15.230Z,1020.64
2022-09-03T07:28:14.842Z,1020.67
2022-09-03T07:29:14.949Z,1020.61
2022-09-03T07:30:15.176Z,1020.63
2022-09-03T07:31:15.331Z,1020.65
2022-09-03T07:32:15.531Z,1020.63
2022-09-03T07:33:15.709Z,1020.59
2022-09-03T07:34:15.820Z,1020.63
2022-09-03T07:35:16.017Z,1020.63
2022-09-03T07:36:16.215Z,1020.62
2022-09-03T07:37:16.360Z,1020.61
2022-09-03T07:38:16.541Z,1020.58
2022-09-03T07:39:16.889Z,1020.63
2022-09-03T07:40:16.870Z,1020.63
2022-09-03T07:41:23.935Z,1020.60
2022-09-03T07:42:18.218Z,1020.59
2022-09-03T07:43:17.410Z,1020.65
2022-09-03T07:44:17.653Z,1020.62
2022-09-03T07:45:17.729Z,1020.63
2022-09-03T07:46:17.932Z,1020.65
2022-09-03T07:47:23.191Z,1020.65
2022-09-03T07:48:19.272Z,1020.62
2022-09-03T07:49:18.414Z,1020.66
2022-09-03T07:50:18.663Z,1020.68
2022-09-03T07:51:18.805Z,1020.66
2022-09-03T07:52:18.952Z,1020.67
2022-09-03T07:53:19.222Z,1020.64
2022-09-03T07:54:19.319Z,1020.70
2022-09-03T07:55:19.461Z,1020.69
2022-09-03T07:56:19.649Z,1020.65
2022-09-03T07:57:19.867Z,1020.62
2022-09-03T07:58:20.002Z,1020.65
2022-09-03T07:59:20.181Z,1020.62
2022-09-03T08:00:20.464Z,1020.65
2022-09-03T08:01:20.532Z,1020.65
2022-09-03T08:02:20.713Z,1020.64
2022-09-03T08:03:21.026Z,1020.64
2022-09-03T08:04:21.070Z,1020.69
2022-09-03T08:05:21.353Z,1020.71
2022-09-03T08:06:21.424Z,1020.70
2022-09-03T08:07:21.613Z,1020.71
2022-09-03T08:08:21.965Z,1020.68
2022-09-03T08:09:21.964Z,1020.67
2022-09-03T08:10:22.104Z,1020.72
2022-09-03T08:11:22.389Z,1020.64
2022-09-03T08:12:22.480Z,1020.67
2022-09-03T08:13:22.766Z,1020.69
2022-09-03T08:14:22.818Z,1020.58
2022-09-03T08:15:23.005Z,1020.60
2022-09-03T08:16:23.259Z,1020.66
2022-09-03T08:17:23.364Z,1020.62
2022-09-03T08:18:23.494Z,1020.62
2022-09-03T08:19:23.705Z,1020.59
2022-09-03T08:20:23.910Z,1020.65
2022-09-03T08:21:24.015Z,1020.53
2022-09-03T08:22:24.186Z,1020.55
2022-09-03T08:23:24.464Z,1020.51
2022-09-03T08:24:24.556Z,1020.49
2022-09-03T08:25:24.746Z,1020.49
2022-09-03T08:26:24.998Z,1020.51
2022-09-03T08:27:25.086Z,1020.54
2022-09-03T08:28:25.321Z,1020.55
2022-09-03T08:29:25.529Z,1020.53
2022-09-03T08:30:25.619Z,1020.50
2022-09-03T08:31:25.822Z,1020.47
2022-09-03T08:32:26.041Z,1020.49
2022-09-03T08:33:26.165Z,1020.46
2022-09-03T08:34:26.297Z,1020.40
2022-09-03T08:35:26.535Z,1020.40
2022-09-03T08:36:26.688Z,1020.39
2022-09-03T08:37:26.848Z,1020.36
2022-09-03T08:38:26.998Z,1020.28
2022-09-03T08:39:27.269Z,1020.32
2022-09-03T08:40:27.349Z,1020.33
2022-09-03T08:41:27.529Z,1020.28
2022-09-03T08:42:27.820Z,1020.30
2022-09-03T08:43:27.870Z,1020.36
2022-09-03T08:44:28.030Z,1020.28
2022-09-03T08:45:28.303Z,1020.26
2022-09-03T08:46:28.422Z,1020.24
2022-09-03T08:47:28.590Z,1020.30
2022-09-03T08:48:28.963Z,1020.24
2022-09-03T08:49:28.952Z,1020.24
2022-09-03T08:50:29.112Z,1020.24
2022-09-03T08:51:29.332Z,1020.27
2022-09-03T08:52:29.462Z,1020.23
2022-09-03T08:53:29.594Z,1020.25
2022-09-03T08:54:29.812Z,1020.25
2022-09-03T08:55:30.006Z,1020.24
2022-09-03T08:56:30.124Z,1020.23
2022-09-03T08:57:30.312Z,1020.19
2022-09-03T08:58:30.553Z,1020.15
2022-09-03T08:59:33.023Z,1020.13
2022-09-03T09:00:30.853Z,1020.11
2022-09-03T09:01:31.133Z,1020.12
2022-09-03T09:02:31.308Z,1020.10
2022-09-03T09:03:31.435Z,1020.09
2022-09-03T09:04:31.658Z,1020.09
2022-09-03T09:05:31.756Z,1020.06
2022-09-03T09:06:31.926Z,1020.06
2022-09-03T09:07:32.239Z,1020.08
2022-09-03T09:08:32.306Z,1020.07
2022-09-03T09:09:32.467Z,1020.06
2022-09-03T09:10:32.706Z,1020.09
2022-09-03T09:11:32.845Z,1020.08
2022-09-03T09:12:41.156Z,1020.08
2022-09-03T09:13:34.189Z,1020.02
2022-09-03T09:14:33.337Z,1019.96
2022-09-03T09:15:33.584Z,1019.96
2022-09-03T09:16:33.765Z,1019.97
2022-09-03T09:17:33.887Z,1019.97
2022-09-03T09:18:34.060Z,1019.96
2022-09-03T09:19:34.318Z,1019.94
2022-09-03T09:20:34.410Z,1019.88
2022-09-03T09:21:34.607Z,1019.86
2022-09-03T09:22:34.852Z,1019.88
2022-09-03T09:23:34.949Z,1019.86
2022-09-03T09:24:35.122Z,1019.81
2022-09-03T09:25:35.380Z,1019.80
2022-09-03T09:26:35.504Z,1019.81
2022-09-03T09:27:35.662Z,1019.81
2022-09-03T09:28:35.892Z,1019.80
2022-09-03T09:29:36.009Z,1019.79
2022-09-03T09:30:36.141Z,1019.79
2022-09-03T09:31:36.430Z,1019.70
2022-09-03T09:32:36.542Z,1019.69
2022-09-03T09:33:36.671Z,1019.72
2022-09-03T09:34:36.844Z,1019.68
2022-09-03T09:35:37.023Z,1019.71
2022-09-03T09:36:37.207Z,1019.73
2022-09-03T09:37:37.454Z,1019.70
2022-09-03T09:38:37.677Z,1019.66
2022-09-03T09:39:37.755Z,1019.61
2022-09-03T09:40:41.366Z,1019.63
2022-09-03T09:41:39.178Z,1019.58
2022-09-03T09:42:38.255Z,1019.55
2022-09-03T09:43:38.435Z,1019.56
2022-09-03T09:44:38.688Z,1019.58
2022-09-03T09:45:38.803Z,1019.55
2022-09-03T09:46:39.061Z,1019.57
2022-09-03T09:47:39.203Z,1019.56
2022-09-03T09:48:39.379Z,1019.55
2022-09-03T09:49:39.506Z,1019.49
2022-09-03T09:50:39.686Z,1019.52
2022-09-03T09:51:39.956Z,1019.54
2022-09-03T09:52:40.046Z,1019.49
2022-09-03T09:53:40.281Z,1019.51
2022-09-03T09:54:40.406Z,1019.46
2022-09-03T09:55:40.598Z,1019.46
2022-09-03T09:56:40.869Z,1019.47
2022-09-03T09:57:40.959Z,1019.42
2022-09-03T09:58:41.141Z,1019.41
2022-09-03T09:59:41.409Z,1019.37
2022-09-03T10:00:41.530Z,1019.39
2022-09-03T10:01:41.784Z,1019.35
2022-09-03T10:02:42.015Z,1019.34
2022-09-03T10:03:42.054Z,1019.34
2022-09-03T10:04:42.240Z,1019.41
2022-09-03T10:05:42.542Z,1019.38
2022-09-03T10:06:42.628Z,1019.34
2022-09-03T10:07:42.751Z,1019.37
2022-09-03T10:08:42.999Z,1019.38
2022-09-03T10:09:43.133Z,1019.38
2022-09-03T10:10:43.263Z,1019.34
2022-09-03T10:11:43.460Z,1019.40
2022-09-03T10:12:43.667Z,1019.35
2022-09-03T10:13:43.793Z,1019.34
2022-09-03T10:14:43.953Z,1019.37
2022-09-03T10:15:44.216Z,1019.41
2022-09-03T10:16:44.321Z,1019.41
2022-09-03T10:17:44.502Z,1019.41
2022-09-03T10:18:44.736Z,1019.44
2022-09-03T10:19:44.822Z,1019.47
2022-09-03T10:20:44.994Z,1019.47
2022-09-03T10:21:45.289Z,1019.48
2022-09-03T10:22:56.442Z,1019.47
2022-09-03T10:23:47.554Z,1019.36
2022-09-03T10:24:45.784Z,1019.37
2022-09-03T10:25:46.027Z,1019.39
2022-09-03T10:26:46.080Z,1019.39
2022-09-03T10:27:46.234Z,1019.39
2022-09-03T10:28:46.432Z,1019.39
2022-09-03T10:29:46.555Z,1019.33
2022-09-03T10:30:46.788Z,1019.28
2022-09-03T10:31:46.990Z,1019.33
2022-09-03T10:32:48.613Z,1019.23
2022-09-03T10:33:47.246Z,1019.28
2022-09-03T10:34:47.510Z,1019.23
2022-09-03T10:35:47.605Z,1019.23
2022-09-03T10:36:47.804Z,1019.21
2022-09-03T10:37:48.028Z,1019.24
2022-09-03T10:38:48.139Z,1019.25
2022-09-03T10:39:52.182Z,1019.30
2022-09-03T10:40:48.595Z,1019.27
2022-09-03T10:41:48.674Z,1019.28
2022-09-03T10:42:48.837Z,1019.25
2022-09-03T10:43:49.058Z,1019.21
2022-09-03T10:44:49.263Z,1019.27
2022-09-03T10:45:49.439Z,1019.21
2022-09-03T10:46:49.601Z,1019.19
2022-09-03T10:47:49.806Z,1019.20
2022-09-03T10:48:49.927Z,1019.19
2022-09-03T10:49:50.101Z,1019.19
2022-09-03T10:50:50.368Z,1019.05
2022-09-03T10:51:50.443Z,1019.10
2022-09-03T10:52:50.619Z,1019.11
2022-09-03T10:53:50.881Z,1019.08
2022-09-03T10:54:50.978Z,1019.10
2022-09-03T10:55:51.147Z,1019.10
2022-09-03T10:56:51.392Z,1019.10
2022-09-03T10:57:51.479Z,1019.10
2022-09-03T10:58:51.639Z,1019.13
2022-09-03T10:59:51.850Z,1019.07
2022-09-03T11:00:52.050Z,1019.05
2022-09-03T11:01:52.213Z,1019.02
2022-09-03T11:02:52.382Z,1019.02
2022-09-03T11:03:52.574Z,1018.95
2022-09-03T11:04:52.688Z,1019.01
2022-09-03T11:05:52.852Z,1019.10
2022-09-03T11:06:53.102Z,1019.15
2022-09-03T11:07:53.171Z,1019.13
2022-09-03T11:08:53.340Z,1019.15
2022-09-03T11:09:53.564Z,1019.12
2022-09-03T11:10:53.683Z,1019.11
2022-09-03T11:11:53.822Z,1019.07
2022-09-03T11:12:54.073Z,1019.09
2022-09-03T11:13:54.220Z,1019.11
2022-09-03T11:14:54.342Z,1018.96
2022-09-03T11:15:54.716Z,1019.08
2022-09-03T11:16:54.753Z,1018.83
2022-09-03T11:17:54.883Z,1018.98
2022-09-03T11:18:55.053Z,1018.99
2022-09-03T11:19:55.270Z,1019.01
2022-09-03T11:20:55.422Z,1019.02
2022-09-03T11:21:55.574Z,1019.03
2022-09-03T11:22:55.822Z,1018.96
2022-09-03T11:23:55.894Z,1018.93
2022-09-03T11:24:56.062Z,1018.95
2022-09-03T11:25:56.355Z,1019.05
2022-09-03T11:26:56.537Z,1019.02
2022-09-03T11:27:56.941Z,1019.05
2022-09-03T11:28:56.886Z,1018.98
2022-09-03T11:29:56.976Z,1018.95
2022-09-03T11:30:57.239Z,1019.01
2022-09-03T11:31:57.429Z,1018.99
2022-09-03T11:32:57.544Z,1018.97
2022-09-03T11:33:57.665Z,1018.94
2022-09-03T11:34:57.889Z,1018.95
2022-09-03T11:35:58.077Z,1018.90
2022-09-03T11:36:58.196Z,1018.92
2022-09-03T11:37:58.376Z,1018.92
2022-09-03T11:38:58.612Z,1018.88
2022-09-03T11:39:58.848Z,1018.87
2022-09-03T11:40:58.936Z,1018.87
2022-09-03T11:41:59.168Z,1018.90
2022-09-03T11:42:59.257Z,1018.81
2022-09-03T11:44:04.397Z,1018.82
2022-09-03T11:45:00.717Z,1018.82
2022-09-03T11:45:59.882Z,1018.83
2022-09-03T11:46:59.967Z,1018.83
2022-09-03T11:48:00.264Z,1018.79
2022-09-03T11:49:00.352Z,1018.78
2022-09-03T11:50:00.526Z,1018.76
2022-09-03T11:51:00.807Z,1018.85
2022-09-03T11:52:00.899Z,1018.87
2022-09-03T11:53:01.056Z,1018.84
2022-09-03T11:54:01.238Z,1018.79
2022-09-03T11:55:01.489Z,1018.82
2022-09-03T11:56:01.596Z,1018.76
2022-09-03T11:57:01.746Z,1018.77
2022-09-03T11:58:01.989Z,1018.75
2022-09-03T11:59:02.091Z,1018.73
2022-09-03T12:00:02.268Z,1018.77
2022-09-03T12:01:02.571Z,1018.72
2022-09-03T12:02:02.672Z,1018.71
2022-09-03T12:03:02.826Z,1018.70
2022-09-03T12:04:03.070Z,1018.72
2022-09-03T12:05:03.231Z,1018.70
2022-09-03T12:06:03.370Z,1018.69
2022-09-03T12:07:03.587Z,1018.71
2022-09-03T12:08:08.678Z,1018.66